Report METAR

 

KSJC - San Jose, California, USA
Distance from station: NE 14km
Dati ricevuti: 21/06/2021 22:53
Few Clouds
Few Clouds
 Vento da NO
Vento: NO 22 km/h
Temperatura: 24°C
P.to Rugiada: 13°C
Umidità: 50%
Barometro: 1013.2 hPa
Nuvole: Few Clouds
Visibility: 16 km
Cloud details: Few Clouds 671 m
2021/06/21 20:53 KSJC 212053Z 32012KT 10SM FEW022 24/13 A2992 RMK AO2 SLP130 T02440133 55003
KNUQ - Moffett Nas/Mtn, California, USA
Distance from station: N 14km
Dati ricevuti: 21/06/2021 23:15
Sereno
Sereno
 Vento da NNO
Vento: NNO 24 km/h, Raffica: 37 km/h
Temperatura: 22°C
P.to Rugiada: 14°C
Umidità: 61%
Barometro: 1013.2 hPa
Nuvole: Sereno
Visibility: 16 km
2021/06/21 21:15 KNUQ 212115Z AUTO 34013G20KT 310V010 10SM CLR 22/14 A2992 RMK AO2
KPAO - Palo Alto, California, USA
Distance from station: NNO 23km
Dati ricevuti: 21/06/2021 22:47
Sereno
Sereno
 Vento da NNO
Vento: NNO 28 km/h
Temperatura: 22°C
P.to Rugiada: 13°C
Umidità: 57%
Barometro: 1013.5 hPa
Nuvole: Sereno
Visibility: 16 km
2021/06/21 20:47 KPAO 212047Z 34015KT 10SM SKC 22/13 A2993
 
KRHV - San Jose/Reid, California, USA
Distance from station: ENE 19km
Dati ricevuti: 21/06/2021 21:47
DATI Obsoleti
Sereno
Sereno
 Vento da Variabile
Vento: Variabile 9 km/h
Temperatura: 26°C
P.to Rugiada: 11°C
Umidità: 39%
Barometro: 1013.2 hPa
Nuvole: Sereno
Visibility: 16 km
2021/06/21 19:47 KRHV 211947Z VRB05KT 10SM SKC 26/11 A2992
KOAK - Oakland, California, USA
Distance from station: NNO 50km
Dati ricevuti: 21/06/2021 22:53
Few Clouds
Few Clouds
 Vento da ONO
Vento: ONO 24 km/h
Temperatura: 22°C
P.to Rugiada: 13°C
Umidità: 57%
Barometro: 1014.2 hPa
Nuvole: Few Clouds
Visibility: 16 km
Cloud details: Few Clouds 305 m
Few Clouds 610 m
Few Clouds 2438 m
2021/06/21 20:53 KOAK 212053Z 30013KT 10SM FEW010 FEW020 FEW080 22/13 A2995 RMK AO2 SLP142 T02170128 50001
KSQL - San Carlos Airpo, California, USA
Distance from station: NO 34km
Dati ricevuti: 21/06/2021 22:47
Sereno
Sereno
 Vento da NNO
Vento: NNO 28 km/h
Temperatura: 22°C
P.to Rugiada: 12°C
Umidità: 53%
Barometro: 1013.9 hPa
Nuvole: Sereno
Visibility: 16 km
2021/06/21 20:47 KSQL 212047Z 33015KT 10SM SKC 22/12 A2994
 
KSFO - San Francisco, California, USA
Distance from station: NO 49km
Dati ricevuti: 21/06/2021 22:56
Few Clouds
Few Clouds
 Vento da SSO
Vento: SSO 24 km/h
Temperatura: 23°C
P.to Rugiada: 12°C
Umidità: 50%
Barometro: 1014.2 hPa
Nuvole: Few Clouds
Visibility: 16 km
Cloud details: Few Clouds 305 m
Few Clouds 1067 m
2021/06/21 20:56 KSFO 212056Z 20013KT 10SM FEW010 FEW035 23/12 A2995 RMK AO2 SLP140 T02330117 51003
KE16 - San Martin, California, USA
Distance from station: ESE 43km
Dati ricevuti: 21/06/2021 23:15
Sereno
Sereno
 Vento da SSO
Vento: SSO 24 km/h, Raffica: 31 km/h
Temperatura: 22°C
P.to Rugiada: 10°C
Umidità: 47%
Barometro: 1014.2 hPa
Nuvole: Sereno
Visibility: 16 km
2021/06/21 21:15 KE16 212115Z AUTO 20013G17KT 10SM CLR 22/10 A2995 RMK AO2 PWINO PNO
KWVI - Watsonville, California, USA
Distance from station: SSE 44km
Dati ricevuti: 21/06/2021 22:53
Coperto
Coperto
 Vento da OSO
Vento: OSO 22 km/h, Raffica: 35 km/h
Temperatura: 18°C
P.to Rugiada: 12°C
Umidità: 68%
Barometro: 1016.3 hPa
Nuvole: Coperto
Visibility: 16 km
Cloud details: Coperto 457 m
2021/06/21 20:53 KWVI 212053Z AUTO 25012G19KT 10SM OVC015 18/12 A3001 RMK AO2 SLP162 T01780117 51007
 
KHAF - Half Moon Bay, California, USA
Distance from station: ONO 50km
Dati ricevuti: 21/06/2021 23:15
Parz. nuvoloso
Parz. nuvoloso
 Vento da S
Vento: S 20 km/h, Raffica: 35 km/h
Temperatura: 17°C
P.to Rugiada: 13°C
Umidità: 77%
Barometro: 1015.6 hPa
Nuvole: Parz. nuvoloso
Visibility: 14 km
Cloud details: Parz. nuvoloso 457 m
2021/06/21 21:15 KHAF 212115Z AUTO 18011G19KT 160V220 9SM SCT015 17/13 A2999 RMK AO2
KHWD - Hayward, California, USA
Distance from station: N 44km
Dati ricevuti: 21/06/2021 22:54
Sereno
Sereno
 Vento da O
Vento: O 22 km/h
Temperatura: 22°C
P.to Rugiada: 12°C
Umidità: 53%
Barometro: 1013.9 hPa
Nuvole: Sereno
Visibility: 16 km
2021/06/21 20:54 KHWD 212054Z 28012KT 10SM CLR 22/12 A2994 RMK AO2 SLP148 T02220122 52001
KLVK - Livermore, California, USA
Distance from station: NNE 51km
Dati ricevuti: 21/06/2021 22:53
Sereno
Sereno
 Vento da O
Vento: O 24 km/h
Temperatura: 27°C
P.to Rugiada: 10°C
Umidità: 34%
Barometro: 1012.5 hPa
Nuvole: Sereno
Visibility: 16 km
2021/06/21 20:53 KLVK 212053Z 28013KT 10SM CLR 27/10 A2990 RMK AO2 SLP121 T02720100 58005